Time,TemperatureF,DewpointF,PressureIn,WindDirection,WindDirectionDegrees,WindSpeedMPH,WindSpeedGustMPH,Humidity,HourlyPrecipIn,Conditions,Clouds,dailyrainin,SoftwareType,DateUTC
2013-07-22 00:01:00,69.0,51.0,29.72,South,172,0.0,-999.0,52,-99.99,,,-99.99,,2013-07-22 07:01:00,
2013-07-22 00:11:00,68.0,49.0,29.72,South,172,0.0,-999.0,51,-99.99,,,-99.99,,2013-07-22 07:11:00,
2013-07-22 00:22:00,68.0,49.0,29.72,South,172,0.0,-999.0,51,-99.99,,,-99.99,,2013-07-22 07:22:00,
2013-07-22 00:33:00,67.0,49.0,29.72,South,172,0.0,-999.0,53,-99.99,,,-99.99,,2013-07-22 07:33:00,
2013-07-22 00:43:00,66.0,48.0,29.73,South,172,0.0,-999.0,53,-99.99,,,-99.99,,2013-07-22 07:43:00,
2013-07-22 00:52:00,66.0,50.0,29.73,South,172,0.0,-999.0,57,-99.99,,,-99.99,,2013-07-22 07:52:00,
2013-07-22 01:01:00,66.0,50.0,29.73,South,172,0.0,-999.0,57,-99.99,,,-99.99,,2013-07-22 08:01:00,
2013-07-22 01:11:00,65.0,50.0,29.73,South,172,0.0,-999.0,58,-99.99,,,-99.99,,2013-07-22 08:11:00,
2013-07-22 01:22:00,65.0,50.0,29.73,South,172,0.0,-999.0,58,-99.99,,,-99.99,,2013-07-22 08:22:00,
2013-07-22 01:32:00,64.0,49.0,29.74,South,172,0.0,-999.0,58,-99.99,,,-99.99,,2013-07-22 08:32:00,
2013-07-22 01:43:00,64.0,50.0,29.74,South,172,0.0,-999.0,60,-99.99,,,-99.99,,2013-07-22 08:43:00,
2013-07-22 01:52:00,64.0,50.0,29.74,South,172,0.0,-999.0,60,-99.99,,,-99.99,,2013-07-22 08:52:00,
2013-07-22 02:02:00,63.0,49.0,29.75,South,172,0.0,-999.0,61,-99.99,,,-99.99,,2013-07-22 09:02:00,
2013-07-22 02:11:00,63.0,50.0,29.75,South,172,0.0,-999.0,63,-99.99,,,-99.99,,2013-07-22 09:11:00,
2013-07-22 02:22:00,62.0,49.0,29.75,South,172,0.0,-999.0,63,-99.99,,,-99.99,,2013-07-22 09:22:00,
2013-07-22 02:33:00,62.0,49.0,29.75,South,172,0.0,-999.0,63,-99.99,,,-99.99,,2013-07-22 09:33:00,
2013-07-22 02:42:00,61.0,49.0,29.75,South,172,0.0,-999.0,64,-99.99,,,-99.99,,2013-07-22 09:42:00,
2013-07-22 02:52:00,61.0,49.0,29.76,South,172,0.0,-999.0,64,-99.99,,,-99.99,,2013-07-22 09:52:00,
2013-07-22 03:01:00,61.0,49.0,29.76,South,172,0.0,-999.0,64,-99.99,,,-99.99,,2013-07-22 10:01:00,
2013-07-22 03:11:00,60.0,48.0,29.76,South,172,0.0,-999.0,64,-99.99,,,-99.99,,2013-07-22 10:11:00,
2013-07-22 03:22:00,60.0,49.0,29.77,South,172,0.0,-999.0,68,-99.99,,,-99.99,,2013-07-22 10:22:00,
2013-07-22 03:32:00,60.0,49.0,29.77,South,172,0.0,-999.0,68,-99.99,,,-99.99,,2013-07-22 10:32:00,
2013-07-22 03:43:00,60.0,49.0,29.77,South,172,0.0,-999.0,68,-99.99,,,-99.99,,2013-07-22 10:43:00,
2013-07-22 03:52:00,59.0,49.0,29.77,South,172,0.0,-999.0,69,-99.99,,,-99.99,,2013-07-22 10:52:00,
2013-07-22 04:01:00,59.0,49.0,29.77,South,172,0.0,-999.0,69,-99.99,,,-99.99,,2013-07-22 11:01:00,
2013-07-22 04:11:00,59.0,48.0,29.78,South,172,0.0,-999.0,68,-99.99,,,-99.99,,2013-07-22 11:11:00,
2013-07-22 04:32:00,58.0,48.0,29.78,South,172,0.0,-999.0,69,-99.99,,,-99.99,,2013-07-22 11:32:00,
2013-07-22 04:43:00,58.0,47.0,29.78,South,172,0.0,-999.0,68,-99.99,,,-99.99,,2013-07-22 11:43:00,
2013-07-22 04:52:00,57.0,47.0,29.79,South,172,0.0,-999.0,68,-99.99,,,-99.99,,2013-07-22 11:52:00,
2013-07-22 05:02:00,57.0,47.0,29.79,South,172,0.0,-999.0,68,-99.99,,,-99.99,,2013-07-22 12:02:00,
2013-07-22 05:11:00,57.0,48.0,29.80,South,172,0.0,-999.0,71,-99.99,,,-99.99,,2013-07-22 12:11:00,
2013-07-22 05:32:00,57.0,48.0,29.80,South,172,0.0,-999.0,72,-99.99,,,-99.99,,2013-07-22 12:32:00,
2013-07-22 05:43:00,57.0,48.0,29.81,South,172,0.0,-999.0,73,-99.99,,,-99.99,,2013-07-22 12:43:00,
2013-07-22 05:52:00,57.0,48.0,29.81,South,172,0.0,-999.0,73,-99.99,,,-99.99,,2013-07-22 12:52:00,
2013-07-22 06:32:00,56.0,48.0,29.83,South,172,0.0,-999.0,75,-99.99,,,-99.99,,2013-07-22 13:32:00,
2013-07-22 06:43:00,57.0,49.0,29.83,South,172,0.0,-999.0,74,-99.99,,,-99.99,,2013-07-22 13:43:00,
2013-07-22 06:53:00,57.0,49.0,29.83,South,172,0.0,-999.0,74,-99.99,,,-99.99,,2013-07-22 13:53:00,
2013-07-22 07:01:00,57.0,48.0,29.83,South,172,0.0,-999.0,72,-99.99,,,-99.99,,2013-07-22 14:01:00,
2013-07-22 07:11:00,58.0,48.0,29.84,South,172,0.0,-999.0,69,-99.99,,,-99.99,,2013-07-22 14:11:00,
2013-07-22 07:32:00,60.0,48.0,29.84,South,172,0.0,-999.0,65,-99.99,,,-99.99,,2013-07-22 14:32:00,
2013-07-22 07:53:00,60.0,47.0,29.84,South,172,0.0,-999.0,63,-99.99,,,-99.99,,2013-07-22 14:53:00,
2013-07-22 08:01:00,62.0,48.0,29.85,South,172,0.0,-999.0,60,-99.99,,,-99.99,,2013-07-22 15:01:00,
2013-07-22 08:32:00,67.0,48.0,29.84,South,171,0.0,-999.0,50,-99.99,,,-99.99,,2013-07-22 15:32:00,
2013-07-22 08:42:00,68.0,48.0,29.84,South,171,0.0,-999.0,48,-99.99,,,-99.99,,2013-07-22 15:42:00,
2013-07-22 08:52:00,68.0,48.0,29.84,South,171,0.0,-999.0,48,-99.99,,,-99.99,,2013-07-22 15:52:00,
2013-07-22 09:01:00,69.0,47.0,29.84,South,169,0.0,-999.0,46,-99.99,,,-99.99,,2013-07-22 16:01:00,
2013-07-22 09:11:00,71.0,48.0,29.84,SSE,166,0.0,-999.0,44,-99.99,,,-99.99,,2013-07-22 16:11:00,
2013-07-22 09:32:00,72.0,49.0,29.84,SSE,166,1.0,-999.0,45,-99.99,,,-99.99,,2013-07-22 16:32:00,
2013-07-22 09:43:00,73.0,49.0,29.83,SSE,166,0.0,-999.0,43,-99.99,,,-99.99,,2013-07-22 16:43:00,
2013-07-22 09:52:00,75.0,50.0,29.83,SSE,166,0.0,-999.0,41,-99.99,,,-99.99,,2013-07-22 16:52:00,
2013-07-22 10:01:00,75.0,50.0,29.83,SSE,166,0.0,-999.0,41,-99.99,,,-99.99,,2013-07-22 17:01:00,
2013-07-22 10:11:00,76.0,48.0,29.83,SSE,167,1.0,-999.0,37,-99.99,,,-99.99,,2013-07-22 17:11:00,
2013-07-22 10:23:00,79.0,50.0,29.83,SSE,167,1.0,-999.0,37,-99.99,,,-99.99,,2013-07-22 17:23:00,
2013-07-22 10:32:00,79.0,50.0,29.83,SSE,167,1.0,-999.0,37,-99.99,,,-99.99,,2013-07-22 17:32:00,
2013-07-22 10:43:00,80.0,48.0,29.82,South,178,1.0,-999.0,33,-99.99,,,-99.99,,2013-07-22 17:43:00,
2013-07-22 10:52:00,82.0,48.0,29.82,South,184,1.0,-999.0,31,-99.99,,,-99.99,,2013-07-22 17:52:00,
2013-07-22 11:13:00,83.0,46.0,29.82,South,184,1.0,-999.0,27,-99.99,,,-99.99,,2013-07-22 18:13:00,
2013-07-22 11:21:00,83.0,46.0,29.82,South,184,1.0,-999.0,27,-99.99,,,-99.99,,2013-07-22 18:21:00,
2013-07-22 12:02:00,88.0,47.0,29.80,South,184,1.0,-999.0,24,-99.99,,,-99.99,,2013-07-22 19:02:00,
2013-07-22 12:32:00,90.0,48.0,29.79,WSW,252,2.0,-999.0,24,-99.99,,,-99.99,,2013-07-22 19:32:00,
2013-07-22 12:43:00,90.0,47.0,29.79,South,191,2.0,-999.0,23,-99.99,,,-99.99,,2013-07-22 19:43:00,
2013-07-22 12:53:00,90.0,47.0,29.79,South,191,2.0,-999.0,23,-99.99,,,-99.99,,2013-07-22 19:53:00,
2013-07-22 13:01:00,91.0,47.0,29.79,West,264,2.0,-999.0,22,-99.99,,,-99.99,,2013-07-22 20:01:00,
2013-07-22 13:12:00,92.0,45.0,29.78,South,191,2.0,-999.0,20,-99.99,,,-99.99,,2013-07-22 20:12:00,
2013-07-22 13:32:00,93.0,47.0,29.78,SW,227,2.0,-999.0,21,-99.99,,,-99.99,,2013-07-22 20:32:00,
2013-07-22 13:43:00,94.0,44.0,29.78,SSW,196,2.0,-999.0,18,-99.99,,,-99.99,,2013-07-22 20:43:00,
2013-07-22 14:01:00,94.0,43.0,29.78,SSW,194,2.0,-999.0,17,-99.99,,,-99.99,,2013-07-22 21:01:00,
2013-07-22 14:11:00,94.0,43.0,29.77,SW,229,2.0,-999.0,17,-99.99,,,-99.99,,2013-07-22 21:11:00,
2013-07-22 14:32:00,94.0,43.0,29.77,SSE,165,2.0,-999.0,17,-99.99,,,-99.99,,2013-07-22 21:32:00,
2013-07-22 14:43:00,95.0,43.0,29.77,SSE,160,2.0,-999.0,17,-99.99,,,-99.99,,2013-07-22 21:43:00,
2013-07-22 15:01:00,95.0,43.0,29.76,South,171,2.0,-999.0,17,-99.99,,,-99.99,,2013-07-22 22:01:00,
2013-07-22 15:11:00,96.0,43.0,29.76,WSW,254,3.0,-999.0,16,-99.99,,,-99.99,,2013-07-22 22:11:00,
2013-07-22 15:32:00,97.0,43.0,29.76,South,175,3.0,-999.0,16,-99.99,,,-99.99,,2013-07-22 22:32:00,
2013-07-22 15:43:00,97.0,45.0,29.76,South,171,3.0,-999.0,17,-99.99,,,-99.99,,2013-07-22 22:43:00,
2013-07-22 15:52:00,97.0,45.0,29.76,South,171,3.0,-999.0,17,-99.99,,,-99.99,,2013-07-22 22:52:00,
2013-07-22 16:01:00,97.0,45.0,29.75,WSW,258,2.0,-999.0,17,-99.99,,,-99.99,,2013-07-22 23:01:00,
2013-07-22 16:22:00,98.0,44.0,29.75,NNE,17,3.0,-999.0,16,-99.99,,,-99.99,,2013-07-22 23:22:00,
2013-07-22 16:32:00,98.0,42.0,29.75,SSW,193,2.0,-999.0,15,-99.99,,,-99.99,,2013-07-22 23:32:00,
2013-07-22 16:42:00,97.0,42.0,29.75,SSW,201,2.0,-999.0,15,-99.99,,,-99.99,,2013-07-22 23:42:00,
2013-07-22 16:52:00,97.0,43.0,29.75,SSE,159,2.0,-999.0,16,-99.99,,,-99.99,,2013-07-22 23:52:00,
2013-07-22 17:01:00,97.0,43.0,29.75,SSE,159,2.0,-999.0,16,-99.99,,,-99.99,,2013-07-23 00:01:00,
2013-07-22 17:11:00,98.0,41.0,29.75,West,265,2.0,-999.0,14,-99.99,,,-99.99,,2013-07-23 00:11:00,
2013-07-22 17:22:00,98.0,41.0,29.75,West,265,2.0,-999.0,14,-99.99,,,-99.99,,2013-07-23 00:22:00,
2013-07-22 17:32:00,98.0,42.0,29.75,South,171,2.0,-999.0,15,-99.99,,,-99.99,,2013-07-23 00:32:00,
2013-07-22 17:43:00,98.0,41.0,29.74,West,263,1.0,-999.0,14,-99.99,,,-99.99,,2013-07-23 00:43:00,
2013-07-22 18:01:00,98.0,41.0,29.74,SSW,204,2.0,-999.0,14,-99.99,,,-99.99,,2013-07-23 01:01:00,
2013-07-22 18:11:00,97.0,43.0,29.74,South,182,3.0,-999.0,16,-99.99,,,-99.99,,2013-07-23 01:11:00,
2013-07-22 18:32:00,96.0,41.0,29.74,SSE,148,3.0,-999.0,15,-99.99,,,-99.99,,2013-07-23 01:32:00,
2013-07-22 18:43:00,95.0,42.0,29.74,South,169,2.0,-999.0,16,-99.99,,,-99.99,,2013-07-23 01:43:00,
2013-07-22 19:01:00,94.0,43.0,29.74,South,169,1.0,-999.0,17,-99.99,,,-99.99,,2013-07-23 02:01:00,
2013-07-22 19:11:00,94.0,47.0,29.75,South,169,0.0,-999.0,20,-99.99,,,-99.99,,2013-07-23 02:11:00,
2013-07-22 19:33:00,92.0,49.0,29.75,South,169,0.0,-999.0,23,-99.99,,,-99.99,,2013-07-23 02:33:00,
2013-07-22 19:43:00,90.0,49.0,29.75,South,169,0.0,-999.0,25,-99.99,,,-99.99,,2013-07-23 02:43:00,
2013-07-22 20:11:00,85.0,46.0,29.75,South,169,0.0,-999.0,26,-99.99,,,-99.99,,2013-07-23 03:11:00,
2013-07-22 20:33:00,84.0,45.0,29.75,South,169,0.0,-999.0,26,-99.99,,,-99.99,,2013-07-23 03:33:00,
2013-07-22 20:43:00,82.0,51.0,29.76,South,169,0.0,-999.0,34,-99.99,,,-99.99,,2013-07-23 03:43:00,
2013-07-22 20:52:00,82.0,51.0,29.76,South,169,0.0,-999.0,34,-99.99,,,-99.99,,2013-07-23 03:52:00,
2013-07-22 21:01:00,80.0,51.0,29.76,South,169,0.0,-999.0,37,-99.99,,,-99.99,,2013-07-23 04:01:00,
2013-07-22 21:11:00,79.0,49.0,29.77,South,169,0.0,-999.0,35,-99.99,,,-99.99,,2013-07-23 04:11:00,
2013-07-22 21:21:00,79.0,49.0,29.77,South,169,0.0,-999.0,35,-99.99,,,-99.99,,2013-07-23 04:21:00,
2013-07-22 21:32:00,78.0,51.0,29.78,South,169,0.0,-999.0,39,-99.99,,,-99.99,,2013-07-23 04:32:00,
2013-07-22 21:42:00,76.0,50.0,29.79,South,169,0.0,-999.0,40,-99.99,,,-99.99,,2013-07-23 04:42:00,
2013-07-22 21:53:00,75.0,52.0,29.80,South,169,0.0,-999.0,44,-99.99,,,-99.99,,2013-07-23 04:53:00,
2013-07-22 22:02:00,75.0,52.0,29.80,South,169,0.0,-999.0,44,-99.99,,,-99.99,,2013-07-23 05:02:00,
2013-07-22 22:11:00,74.0,51.0,29.81,South,169,0.0,-999.0,44,-99.99,,,-99.99,,2013-07-23 05:11:00,
2013-07-22 22:22:00,74.0,51.0,29.81,South,169,0.0,-999.0,44,-99.99,,,-99.99,,2013-07-23 05:22:00,
2013-07-22 22:33:00,74.0,52.0,29.81,South,169,0.0,-999.0,46,-99.99,,,-99.99,,2013-07-23 05:33:00,
2013-07-22 22:43:00,74.0,51.0,29.82,South,169,0.0,-999.0,45,-99.99,,,-99.99,,2013-07-23 05:43:00,
2013-07-22 22:52:00,74.0,51.0,29.82,South,169,0.0,-999.0,45,-99.99,,,-99.99,,2013-07-23 05:52:00,
2013-07-22 23:01:00,73.0,52.0,29.83,South,169,0.0,-999.0,48,-99.99,,,-99.99,,2013-07-23 06:01:00,
2013-07-22 23:11:00,71.0,51.0,29.83,South,169,0.0,-999.0,49,-99.99,,,-99.99,,2013-07-23 06:11:00,
2013-07-22 23:33:00,70.0,50.0,29.83,South,169,0.0,-999.0,50,-99.99,,,-99.99,,2013-07-23 06:33:00,
2013-07-22 23:42:00,69.0,51.0,29.84,South,169,0.0,-999.0,52,-99.99,,,-99.99,,2013-07-23 06:42:00,